createdAt,value
2017-09-24T00:01:12.498Z,12.10
2017-09-24T00:03:44.524Z,12.10
2017-09-24T00:06:15.300Z,12.00
2017-09-24T00:08:47.137Z,12.00
2017-09-24T00:11:18.100Z,12.00
2017-09-24T00:13:49.564Z,12.00
2017-09-24T00:16:20.595Z,11.90
2017-09-24T00:18:51.827Z,12.00
2017-09-24T00:21:22.828Z,12.00
2017-09-24T00:23:53.717Z,12.00
2017-09-24T00:26:24.685Z,12.00
2017-09-24T00:28:55.591Z,12.00
2017-09-24T00:31:26.597Z,12.00
2017-09-24T00:33:57.945Z,12.00
2017-09-24T00:36:29.406Z,11.90
2017-09-24T00:39:00.382Z,11.90
2017-09-24T00:41:31.290Z,11.90
2017-09-24T00:44:02.993Z,11.90
2017-09-24T00:46:34.096Z,11.90
2017-09-24T00:49:05.471Z,11.90
2017-09-24T00:51:37.060Z,11.80
2017-09-24T00:54:07.825Z,11.80
2017-09-24T00:56:40.142Z,11.80
2017-09-24T00:59:11.221Z,11.80
2017-09-24T01:01:42.142Z,11.90
2017-09-24T01:04:13.120Z,11.80
2017-09-24T01:06:45.370Z,11.80
2017-09-24T01:09:16.405Z,11.80
2017-09-24T01:11:47.815Z,11.80
2017-09-24T01:14:18.862Z,11.80
2017-09-24T01:16:49.830Z,11.80
2017-09-24T01:19:20.325Z,11.80
2017-09-24T01:21:51.354Z,11.70
2017-09-24T01:24:22.442Z,11.70
2017-09-24T01:26:53.334Z,11.70
2017-09-24T01:29:24.313Z,11.70
2017-09-24T01:31:55.888Z,11.70
2017-09-24T01:34:26.949Z,11.60
2017-09-24T01:36:57.267Z,11.60
2017-09-24T01:39:28.989Z,11.60
2017-09-24T01:42:00.712Z,11.60
2017-09-24T01:44:31.781Z,11.50
2017-09-24T01:47:02.802Z,11.60
2017-09-24T01:49:33.301Z,11.50
2017-09-24T01:52:03.755Z,11.50
2017-09-24T01:54:34.718Z,11.50
2017-09-24T01:57:05.632Z,11.50
2017-09-24T01:59:36.217Z,11.50
2017-09-24T02:02:08.004Z,11.50
2017-09-24T02:04:38.815Z,11.40
2017-09-24T02:07:10.688Z,11.40
2017-09-24T02:09:42.024Z,11.40
2017-09-24T02:12:13.717Z,11.40
2017-09-24T02:14:44.737Z,11.40
2017-09-24T02:17:15.915Z,11.40
2017-09-24T02:19:46.710Z,11.40
2017-09-24T02:22:17.550Z,11.40
2017-09-24T02:24:48.642Z,11.40
2017-09-24T02:27:19.619Z,11.30
2017-09-24T02:29:50.941Z,11.30
2017-09-24T02:32:21.891Z,11.30
2017-09-24T02:34:53.416Z,11.20
2017-09-24T02:37:24.495Z,11.20
2017-09-24T02:39:56.031Z,11.20
2017-09-24T02:42:27.184Z,11.20
2017-09-24T02:44:58.901Z,11.10
2017-09-24T02:47:30.712Z,11.10
2017-09-24T02:50:01.994Z,11.10
2017-09-24T02:52:33.015Z,11.00
2017-09-24T02:55:04.143Z,11.00
2017-09-24T02:57:35.065Z,11.00
2017-09-24T03:00:06.802Z,11.00
2017-09-24T03:02:38.181Z,11.00
2017-09-24T03:05:09.337Z,11.00
2017-09-24T03:07:40.565Z,11.00
2017-09-24T03:10:12.189Z,11.00
2017-09-24T03:12:43.446Z,11.00
2017-09-24T03:15:14.371Z,11.00
2017-09-24T03:17:45.242Z,10.90
2017-09-24T03:20:17.327Z,10.80
2017-09-24T03:22:48.462Z,10.80
2017-09-24T03:25:19.280Z,10.80
2017-09-24T03:27:51.213Z,10.90
2017-09-24T03:30:21.507Z,10.90
2017-09-24T03:32:52.518Z,11.00
2017-09-24T03:35:23.331Z,11.00
2017-09-24T03:37:54.520Z,11.00
2017-09-24T03:40:25.498Z,11.00
2017-09-24T03:42:57.327Z,11.00
2017-09-24T03:45:27.543Z,11.00
2017-09-24T03:47:58.391Z,11.00
2017-09-24T03:50:29.232Z,10.90
2017-09-24T03:52:59.929Z,10.90
2017-09-24T03:55:30.667Z,10.90
2017-09-24T03:58:01.595Z,10.90
2017-09-24T04:00:32.688Z,10.90
2017-09-24T04:03:02.989Z,10.90
2017-09-24T04:05:33.858Z,10.90
2017-09-24T04:08:04.635Z,10.90
2017-09-24T04:10:35.175Z,10.90
2017-09-24T04:13:06.117Z,10.90
2017-09-24T04:15:36.975Z,10.80
2017-09-24T04:18:07.643Z,10.80
2017-09-24T04:20:38.306Z,10.80
2017-09-24T04:23:09.645Z,10.80
2017-09-24T04:25:41.274Z,10.80
2017-09-24T04:28:12.315Z,10.80
2017-09-24T04:30:43.154Z,10.80
2017-09-24T04:33:14.637Z,10.80
2017-09-24T04:35:45.232Z,10.80
2017-09-24T04:38:16.203Z,10.90
2017-09-24T04:40:47.987Z,10.80
2017-09-24T04:43:18.685Z,10.80
2017-09-24T04:45:49.687Z,10.80
2017-09-24T04:48:20.923Z,10.90
2017-09-24T04:50:51.647Z,10.80
2017-09-24T04:53:22.308Z,10.80
2017-09-24T04:55:52.951Z,10.80
2017-09-24T04:58:24.386Z,10.80
2017-09-24T05:00:54.973Z,10.80
2017-09-24T05:03:25.808Z,10.90
2017-09-24T05:05:57.571Z,10.80
2017-09-24T05:08:28.766Z,10.80
2017-09-24T05:11:00.381Z,10.60
2017-09-24T05:13:31.355Z,10.60
2017-09-24T05:16:02.738Z,10.60
2017-09-24T05:18:34.733Z,10.70
2017-09-24T05:22:09.090Z,10.70
2017-09-24T05:24:40.825Z,10.80
2017-09-24T05:27:11.329Z,10.80
2017-09-24T05:29:42.493Z,10.80
2017-09-24T05:32:14.749Z,10.80
2017-09-24T05:34:45.605Z,10.80
2017-09-24T05:37:16.370Z,10.80
2017-09-24T05:39:48.529Z,10.70
2017-09-24T05:42:19.380Z,10.70
2017-09-24T05:44:50.691Z,10.70
2017-09-24T05:47:21.238Z,10.60
2017-09-24T05:49:52.010Z,10.70
2017-09-24T05:52:22.870Z,10.50
2017-09-24T05:54:53.746Z,10.40
2017-09-24T05:57:24.603Z,10.30
2017-09-24T05:59:56.232Z,10.40
2017-09-24T06:02:27.651Z,10.50
2017-09-24T06:04:58.337Z,10.50
2017-09-24T06:07:30.047Z,10.60
2017-09-24T06:10:00.921Z,10.60
2017-09-24T06:12:31.663Z,10.70
2017-09-24T06:15:03.390Z,10.40
2017-09-24T06:17:34.466Z,10.40
2017-09-24T06:20:05.332Z,10.50
2017-09-24T06:22:36.023Z,10.60
2017-09-24T06:25:06.671Z,10.70
2017-09-24T06:27:37.327Z,10.80
2017-09-24T06:30:08.238Z,10.90
2017-09-24T06:32:41.200Z,11.10
2017-09-24T06:35:11.958Z,11.10
2017-09-24T06:37:42.853Z,11.10
2017-09-24T06:40:14.293Z,11.30
2017-09-24T06:42:45.467Z,11.30
2017-09-24T06:45:16.356Z,11.30
2017-09-24T06:47:47.484Z,11.30
2017-09-24T06:50:19.692Z,11.40
2017-09-24T06:52:50.788Z,11.30
2017-09-24T06:55:22.413Z,11.40
2017-09-24T06:57:53.938Z,11.60
2017-09-24T07:00:25.083Z,11.60
2017-09-24T07:02:55.926Z,11.70
2017-09-24T07:05:26.747Z,11.70
2017-09-24T07:07:57.990Z,11.50
2017-09-24T07:10:29.172Z,11.40
2017-09-24T07:13:00.021Z,11.50
2017-09-24T07:15:31.987Z,12.10
2017-09-24T07:18:02.184Z,12.10
2017-09-24T07:20:33.763Z,12.30
2017-09-24T07:23:03.814Z,12.30
2017-09-24T07:25:34.550Z,12.70
2017-09-24T07:28:06.967Z,13.10
2017-09-24T07:30:38.529Z,13.30
2017-09-24T07:33:10.175Z,13.30
2017-09-24T07:35:41.117Z,13.30
2017-09-24T07:38:12.635Z,13.30
2017-09-24T07:40:44.341Z,13.30
2017-09-24T07:43:15.290Z,13.40
2017-09-24T07:45:46.183Z,13.30
2017-09-24T07:48:16.923Z,13.50
2017-09-24T07:50:47.951Z,13.80
2017-09-24T07:53:18.848Z,13.80
2017-09-24T07:55:49.784Z,14.00
2017-09-24T07:58:20.788Z,14.50
2017-09-24T08:00:52.502Z,15.30
2017-09-24T08:03:23.198Z,15.20
2017-09-24T08:05:54.180Z,15.00
2017-09-24T08:08:25.113Z,15.80
2017-09-24T08:10:55.934Z,15.20
2017-09-24T08:13:26.558Z,15.20
2017-09-24T08:15:57.881Z,15.50
2017-09-24T08:18:28.813Z,16.00
2017-09-24T08:21:00.194Z,17.50
2017-09-24T08:23:30.756Z,17.40
2017-09-24T08:26:02.386Z,18.10
2017-09-24T08:28:33.297Z,18.70
2017-09-24T08:31:04.430Z,18.10
2017-09-24T08:33:35.578Z,17.50
2017-09-24T08:36:06.467Z,18.80
2017-09-24T08:41:09.674Z,21.00
2017-09-24T08:43:40.274Z,21.50
2017-09-24T08:46:11.219Z,22.10
2017-09-24T08:48:42.816Z,22.20
2017-09-24T08:51:13.815Z,22.60
2017-09-24T08:53:44.710Z,22.10
2017-09-24T08:56:16.213Z,23.40
2017-09-24T08:58:47.167Z,23.30
2017-09-24T09:01:18.157Z,22.80
2017-09-24T09:03:49.755Z,21.90
2017-09-24T09:06:20.325Z,22.40
2017-09-24T09:08:51.825Z,23.60
2017-09-24T09:11:23.078Z,23.60
2017-09-24T09:13:54.073Z,23.50
2017-09-24T09:16:25.835Z,24.10
2017-09-24T09:18:57.846Z,24.10
2017-09-24T09:21:38.287Z,24.10
2017-09-24T09:24:08.903Z,23.70
2017-09-24T09:26:39.331Z,24.40
2017-09-24T09:29:10.997Z,24.40
2017-09-24T09:31:42.070Z,24.40
2017-09-24T09:34:22.514Z,24.00
2017-09-24T09:36:53.884Z,24.80
2017-09-24T09:39:24.666Z,24.80
2017-09-24T09:41:55.205Z,25.10
2017-09-24T09:44:35.771Z,25.40
2017-09-24T09:47:16.890Z,25.20
2017-09-24T09:49:47.496Z,25.70
2017-09-24T09:52:18.355Z,26.20
2017-09-24T09:54:49.031Z,25.80
2017-09-24T09:57:19.592Z,25.00
2017-09-24T09:59:50.602Z,24.80
2017-09-24T10:02:21.270Z,23.70
2017-09-24T10:04:51.861Z,24.00
2017-09-24T10:07:32.206Z,24.00
2017-09-24T10:10:13.382Z,24.10
2017-09-24T10:12:44.263Z,24.00
2017-09-24T10:15:15.119Z,24.90
2017-09-24T10:17:45.819Z,25.50
2017-09-24T10:20:16.677Z,25.80
2017-09-24T10:22:48.355Z,25.60
2017-09-24T10:25:19.305Z,25.60
2017-09-24T10:27:50.858Z,26.00
2017-09-24T10:30:31.244Z,26.00
2017-09-24T10:33:05.046Z,26.20
2017-09-24T10:35:36.081Z,26.20
2017-09-24T10:38:07.942Z,25.00
2017-09-24T10:40:39.511Z,25.10
2017-09-24T10:43:10.285Z,25.00
2017-09-24T10:45:41.515Z,24.80
2017-09-24T10:48:12.125Z,25.60
2017-09-24T10:50:42.830Z,26.20
2017-09-24T10:53:14.576Z,26.00
2017-09-24T10:55:44.815Z,26.00
2017-09-24T10:58:16.434Z,23.80
2017-09-24T11:00:48.229Z,24.00
2017-09-24T11:03:19.891Z,23.60
2017-09-24T11:05:50.705Z,23.60
2017-09-24T11:08:22.223Z,24.40
2017-09-24T11:10:53.333Z,24.40
2017-09-24T11:13:24.450Z,24.70
2017-09-24T11:15:55.817Z,24.60
2017-09-24T11:18:26.947Z,24.50
2017-09-24T11:20:57.776Z,24.40
2017-09-24T11:23:29.541Z,24.20
2017-09-24T11:26:01.007Z,24.20
2017-09-24T11:28:32.007Z,24.20
2017-09-24T11:31:02.560Z,23.60
2017-09-24T11:33:33.613Z,24.40
2017-09-24T11:36:04.696Z,24.70
2017-09-24T11:38:35.103Z,25.20
2017-09-24T11:41:06.056Z,25.80
2017-09-24T11:43:37.123Z,26.30
2017-09-24T11:46:09.806Z,25.10
2017-09-24T11:48:41.120Z,25.10
2017-09-24T11:51:11.898Z,25.20
2017-09-24T11:53:42.134Z,25.10
2017-09-24T11:56:13.602Z,25.50
2017-09-24T11:58:44.502Z,25.40
2017-09-24T12:01:15.450Z,24.50
2017-09-24T12:03:46.883Z,25.40
2017-09-24T12:06:17.379Z,25.70
2017-09-24T12:08:48.487Z,25.70
2017-09-24T12:11:20.398Z,25.60
2017-09-24T12:13:51.821Z,25.60
2017-09-24T12:16:24.013Z,25.70
2017-09-24T12:18:54.714Z,25.70
2017-09-24T12:21:25.471Z,26.00
2017-09-24T12:23:55.968Z,26.50
2017-09-24T12:26:27.675Z,26.70
2017-09-24T12:28:58.854Z,26.60
2017-09-24T12:31:30.445Z,26.60
2017-09-24T12:34:01.781Z,26.70
2017-09-24T12:36:32.593Z,26.50
2017-09-24T12:39:04.115Z,27.10
2017-09-24T12:41:35.200Z,27.10
2017-09-24T12:44:06.171Z,26.80
2017-09-24T12:46:37.377Z,26.80
2017-09-24T12:49:08.333Z,27.00
2017-09-24T12:51:40.413Z,27.60
2017-09-24T12:54:11.031Z,27.50
2017-09-24T12:56:43.379Z,27.00
2017-09-24T12:59:15.539Z,26.30
2017-09-24T13:01:46.461Z,26.30
2017-09-24T13:04:16.840Z,26.40
2017-09-24T13:06:47.237Z,26.60
2017-09-24T13:09:17.890Z,26.90
2017-09-24T13:11:48.842Z,26.80
2017-09-24T13:14:19.463Z,26.50
2017-09-24T13:16:50.687Z,26.80
2017-09-24T13:19:22.023Z,27.00
2017-09-24T13:21:52.934Z,27.00
2017-09-24T13:24:24.323Z,27.40
2017-09-24T13:26:55.832Z,27.40
2017-09-24T13:29:26.751Z,27.20
2017-09-24T13:31:58.078Z,26.50
2017-09-24T13:34:29.239Z,25.00
2017-09-24T13:37:01.065Z,25.10
2017-09-24T13:39:31.587Z,25.10
2017-09-24T13:42:02.369Z,24.30
2017-09-24T13:44:33.886Z,25.00
2017-09-24T13:47:04.965Z,25.00
2017-09-24T13:49:35.914Z,24.50
2017-09-24T13:52:06.726Z,24.50
2017-09-24T13:54:37.552Z,24.90
2017-09-24T13:57:08.375Z,25.30
2017-09-24T13:59:39.291Z,25.80
2017-09-24T14:02:09.999Z,26.30
2017-09-24T14:04:41.362Z,25.50
2017-09-24T14:07:13.335Z,25.00
2017-09-24T14:09:44.694Z,24.80
2017-09-24T14:12:17.234Z,24.70
2017-09-24T14:14:48.183Z,24.70
2017-09-24T14:17:20.168Z,25.20
2017-09-24T14:19:51.388Z,25.30
2017-09-24T14:22:22.320Z,25.30
2017-09-24T14:24:54.167Z,25.30
2017-09-24T14:27:26.409Z,25.20
2017-09-24T14:29:57.437Z,25.40
2017-09-24T14:32:27.950Z,25.60
2017-09-24T14:34:59.342Z,25.50
2017-09-24T14:37:29.842Z,25.30
2017-09-24T14:40:00.746Z,24.40
2017-09-24T14:42:32.049Z,24.20
2017-09-24T14:45:03.300Z,24.20
2017-09-24T14:47:33.936Z,24.10
2017-09-24T14:50:05.348Z,24.00
2017-09-24T14:52:35.762Z,23.40
2017-09-24T14:55:07.741Z,23.10
2017-09-24T14:57:38.971Z,23.10
2017-09-24T15:00:10.532Z,23.00
2017-09-24T15:02:41.915Z,22.20
2017-09-24T15:05:13.128Z,21.80
2017-09-24T15:07:44.404Z,22.10
2017-09-24T15:10:16.985Z,22.30
2017-09-24T15:12:49.090Z,22.30
2017-09-24T15:15:20.801Z,22.00
2017-09-24T15:17:51.949Z,21.30
2017-09-24T15:20:23.010Z,20.90
2017-09-24T15:22:53.753Z,20.70
2017-09-24T15:25:25.481Z,20.80
2017-09-24T15:27:57.107Z,21.00
2017-09-24T15:30:28.793Z,21.10
2017-09-24T15:32:59.547Z,21.00
2017-09-24T15:35:30.389Z,21.00
2017-09-24T15:38:02.077Z,20.80
2017-09-24T15:40:33.595Z,20.70
2017-09-24T15:43:05.280Z,20.70
2017-09-24T15:45:37.703Z,20.70
2017-09-24T15:48:08.797Z,20.70
2017-09-24T15:50:40.156Z,20.60
2017-09-24T15:53:11.027Z,20.60
2017-09-24T15:55:43.463Z,20.60
2017-09-24T15:58:15.250Z,20.50
2017-09-24T16:00:46.457Z,20.50
2017-09-24T16:03:17.401Z,20.50
2017-09-24T16:05:49.367Z,20.60
2017-09-24T16:08:20.406Z,20.60
2017-09-24T16:10:52.880Z,20.50
2017-09-24T16:13:24.172Z,20.50
2017-09-24T16:15:54.967Z,20.40
2017-09-24T16:18:25.696Z,20.40
2017-09-24T16:20:57.023Z,20.30
2017-09-24T16:23:28.389Z,20.20
2017-09-24T16:25:59.573Z,20.10
2017-09-24T16:28:30.722Z,20.10
2017-09-24T16:31:02.308Z,20.10
2017-09-24T16:33:34.091Z,20.00
2017-09-24T16:36:05.239Z,20.00
2017-09-24T16:38:36.379Z,19.90
2017-09-24T16:41:07.623Z,19.90
2017-09-24T16:43:39.085Z,19.70
2017-09-24T16:46:10.429Z,19.70
2017-09-24T16:48:41.973Z,19.70
2017-09-24T16:51:13.718Z,19.60
2017-09-24T16:53:46.042Z,19.40
2017-09-24T16:56:19.376Z,19.40
2017-09-24T16:58:52.567Z,19.30
2017-09-24T17:03:51.076Z,19.20
2017-09-24T17:06:22.506Z,19.10
2017-09-24T17:08:54.090Z,19.00
2017-09-24T17:11:25.453Z,19.00
2017-09-24T17:13:56.659Z,19.00
2017-09-24T17:16:27.887Z,19.00
2017-09-24T17:18:59.417Z,18.90
2017-09-24T17:21:30.979Z,18.80
2017-09-24T17:24:02.378Z,18.70
2017-09-24T17:26:34.070Z,18.70
2017-09-24T17:29:05.574Z,18.60
2017-09-24T17:31:37.023Z,18.60
2017-09-24T17:34:08.693Z,18.50
2017-09-24T17:36:39.488Z,18.40
2017-09-24T17:39:11.208Z,18.40
2017-09-24T17:41:43.642Z,18.30
2017-09-24T17:44:14.784Z,18.30
2017-09-24T17:46:46.080Z,18.20
2017-09-24T17:49:17.024Z,18.20
2017-09-24T17:51:49.473Z,18.00
2017-09-24T17:54:20.638Z,18.00
2017-09-24T17:56:51.578Z,17.90
2017-09-24T17:59:22.978Z,17.90
2017-09-24T18:01:55.346Z,17.80
2017-09-24T18:04:27.670Z,17.70
2017-09-24T18:06:58.824Z,17.70
2017-09-24T18:09:31.286Z,17.60
2017-09-24T18:12:03.170Z,17.60
2017-09-24T18:14:34.481Z,17.50
2017-09-24T18:17:05.842Z,17.50
2017-09-24T18:19:37.173Z,17.50
2017-09-24T18:22:09.110Z,17.30
2017-09-24T18:24:40.616Z,17.40
2017-09-24T18:27:11.500Z,17.30
2017-09-24T18:29:42.991Z,17.20
2017-09-24T18:32:14.417Z,17.10
2017-09-24T18:34:46.576Z,17.00
2017-09-24T18:37:17.940Z,16.90
2017-09-24T18:39:49.421Z,16.80
2017-09-24T18:42:20.829Z,16.80
2017-09-24T18:44:52.423Z,16.70
2017-09-24T18:47:24.012Z,16.70
2017-09-24T18:49:55.618Z,16.60
2017-09-24T18:52:28.080Z,16.50
2017-09-24T18:55:00.533Z,16.60
2017-09-24T18:57:31.222Z,16.50
2017-09-24T19:00:03.174Z,16.50
2017-09-24T19:02:34.738Z,16.50
2017-09-24T19:05:07.116Z,16.40
2017-09-24T19:07:40.443Z,16.30
2017-09-24T19:10:12.456Z,16.30
2017-09-24T19:12:43.435Z,16.30
2017-09-24T19:15:14.741Z,16.30
2017-09-24T19:17:45.486Z,16.20
2017-09-24T19:20:17.165Z,16.10
2017-09-24T19:22:48.915Z,16.10
2017-09-24T19:25:23.285Z,16.00
2017-09-24T19:27:54.655Z,16.00
2017-09-24T19:30:26.419Z,15.80
2017-09-24T19:32:57.911Z,15.80
2017-09-24T19:35:29.257Z,15.80
2017-09-24T19:38:00.667Z,15.80
2017-09-24T19:40:32.196Z,15.70
2017-09-24T19:43:03.632Z,15.70
2017-09-24T19:45:34.682Z,15.60
2017-09-24T19:48:06.095Z,15.50
2017-09-24T19:50:37.570Z,15.50
2017-09-24T19:53:08.767Z,15.50
2017-09-24T19:55:41.282Z,15.40
2017-09-24T19:58:12.631Z,15.40
2017-09-24T20:00:45.375Z,15.40
2017-09-24T20:03:16.490Z,15.30
2017-09-24T20:05:48.424Z,15.20
2017-09-24T20:08:19.527Z,15.20
2017-09-24T20:10:50.749Z,15.20
2017-09-24T20:13:22.652Z,15.20
2017-09-24T20:15:53.706Z,15.20
2017-09-24T20:18:24.976Z,15.20
2017-09-24T20:20:56.306Z,15.20
2017-09-24T20:23:26.894Z,15.30
2017-09-24T20:25:58.994Z,15.10
2017-09-24T20:28:30.150Z,15.10
2017-09-24T20:31:01.570Z,15.10
2017-09-24T20:33:33.156Z,15.00
2017-09-24T20:36:04.787Z,15.00
2017-09-24T20:38:36.382Z,15.00
2017-09-24T20:41:07.459Z,14.90
2017-09-24T20:43:37.985Z,14.80
2017-09-24T20:46:09.407Z,14.80
2017-09-24T20:48:41.509Z,14.70
2017-09-24T20:51:12.368Z,14.70
2017-09-24T20:53:43.631Z,14.70
2017-09-24T20:56:15.899Z,14.60
2017-09-24T20:58:47.192Z,14.60
2017-09-24T21:01:18.616Z,14.60
2017-09-24T21:03:49.744Z,14.50
2017-09-24T21:06:20.954Z,14.50
2017-09-24T21:08:52.654Z,14.50
2017-09-24T21:11:24.489Z,14.50
2017-09-24T21:13:55.573Z,14.50
2017-09-24T21:16:27.413Z,14.50
2017-09-24T21:18:58.228Z,14.50
2017-09-24T21:21:29.323Z,14.50
2017-09-24T21:24:01.460Z,14.50
2017-09-24T21:26:32.870Z,14.40
2017-09-24T21:29:04.383Z,14.50
2017-09-24T21:31:36.425Z,14.40
2017-09-24T21:34:07.150Z,14.40
2017-09-24T21:36:38.713Z,14.40
2017-09-24T21:39:09.559Z,14.40
2017-09-24T21:41:41.577Z,14.40
2017-09-24T21:44:12.645Z,14.30
2017-09-24T21:46:43.867Z,14.30
2017-09-24T21:49:16.138Z,14.30
2017-09-24T21:51:47.507Z,14.20
2017-09-24T21:54:19.512Z,14.10
2017-09-24T21:56:51.547Z,14.00
2017-09-24T21:59:23.723Z,14.00
2017-09-24T22:01:55.620Z,14.00
2017-09-24T22:04:27.570Z,14.00
2017-09-24T22:06:59.625Z,13.90
2017-09-24T22:09:31.419Z,13.90
2017-09-24T22:12:02.516Z,13.90
2017-09-24T22:14:33.727Z,13.90
2017-09-24T22:17:04.694Z,13.80
2017-09-24T22:19:35.865Z,13.80
2017-09-24T22:22:07.183Z,13.80
2017-09-24T22:24:38.359Z,13.70
2017-09-24T22:27:09.117Z,13.70
2017-09-24T22:29:40.241Z,13.70
2017-09-24T22:32:12.294Z,13.70
2017-09-24T22:34:43.680Z,13.60
2017-09-24T22:37:14.901Z,13.50
2017-09-24T22:39:46.784Z,13.50
2017-09-24T22:42:17.825Z,13.50
2017-09-24T22:44:48.738Z,13.40
2017-09-24T22:47:20.858Z,13.40
2017-09-24T22:49:51.800Z,13.40
2017-09-24T22:52:22.973Z,13.40
2017-09-24T22:54:54.879Z,13.30
2017-09-24T22:57:26.011Z,13.30
2017-09-24T22:59:56.795Z,13.40
2017-09-24T23:02:27.472Z,13.40
2017-09-24T23:04:58.511Z,13.40
2017-09-24T23:07:29.138Z,13.40
2017-09-24T23:10:00.348Z,13.40
2017-09-24T23:12:31.996Z,13.30
2017-09-24T23:15:03.079Z,13.30
2017-09-24T23:17:34.304Z,13.30
2017-09-24T23:20:06.458Z,13.30
2017-09-24T23:22:38.235Z,13.20
2017-09-24T23:25:09.812Z,13.30
2017-09-24T23:27:42.323Z,13.20
2017-09-24T23:30:13.506Z,13.20
2017-09-24T23:32:45.536Z,13.10
2017-09-24T23:35:16.967Z,13.10
2017-09-24T23:37:48.733Z,13.10
2017-09-24T23:40:19.730Z,13.10
2017-09-24T23:42:50.559Z,13.00
2017-09-24T23:45:21.631Z,13.00
2017-09-24T23:47:54.309Z,12.90
2017-09-24T23:50:25.415Z,12.90
2017-09-24T23:52:57.677Z,12.80
2017-09-24T23:55:29.990Z,12.80
2017-09-24T23:58:01.477Z,12.80
